RYR0599 LEPA-LEZL
Flight info
| Callsign | RYR0599 |
|---|---|
| Flight time | 1h 11m |
| Altitude | 35000 |
| Route | EPAMA N733 VLC M985 YES N747 BLN |
| Aircraft | B38M/M-SDE1FGHILORVWXY/HB1 |
Departure
| Time | 2026-04-25 07:16 |
|---|---|
| Airport | Palma de Mallorca Airport (LEPA) |
Arrival
| Time | 2026-04-25 08:27 |
|---|---|
| Airport | Seville Airport (LEZL) |
| Time | Latitude | Longitude | Altitude | Speed | Heading |
|---|---|---|---|---|---|
| 2026-04-25 07:16 | 39.64927 | 2.77681 | 8359 ft | 284 kts | 311° |
| 2026-04-25 07:16 | 39.66207 | 2.75723 | 9468 ft | 285 kts | 311° |
| 2026-04-25 07:16 | 39.67485 | 2.73763 | 10453 ft | 292 kts | 311° |
| 2026-04-25 07:16 | 39.68849 | 2.71682 | 11166 ft | 306 kts | 311° |
| 2026-04-25 07:17 | 39.70248 | 2.69555 | 11843 ft | 320 kts | 311° |
| 2026-04-25 07:17 | 39.71709 | 2.67323 | 12690 ft | 326 kts | 311° |
| 2026-04-25 07:17 | 39.73172 | 2.65069 | 13694 ft | 329 kts | 311° |
| 2026-04-25 07:17 | 39.74663 | 2.62772 | 14477 ft | 335 kts | 311° |
| 2026-04-25 07:18 | 39.76174 | 2.60435 | 15286 ft | 339 kts | 311° |
| 2026-04-25 07:18 | 39.77701 | 2.58073 | 16058 ft | 343 kts | 311° |
| 2026-04-25 07:18 | 39.79238 | 2.55691 | 16814 ft | 348 kts | 311° |
| 2026-04-25 07:18 | 39.80588 | 2.53079 | 17556 ft | 353 kts | 294° |
| 2026-04-25 07:19 | 39.81185 | 2.49970 | 18301 ft | 359 kts | 274° |
| 2026-04-25 07:19 | 39.80950 | 2.46730 | 18934 ft | 363 kts | 257° |
| 2026-04-25 07:19 | 39.80384 | 2.43506 | 19552 ft | 367 kts | 257° |
| 2026-04-25 07:19 | 39.79808 | 2.40264 | 20187 ft | 370 kts | 257° |
| 2026-04-25 07:20 | 39.79213 | 2.36993 | 20823 ft | 373 kts | 257° |
| 2026-04-25 07:20 | 39.78605 | 2.33701 | 21435 ft | 376 kts | 257° |
| 2026-04-25 07:20 | 39.77985 | 2.30375 | 22039 ft | 379 kts | 256° |
| 2026-04-25 07:20 | 39.77360 | 2.27026 | 22645 ft | 382 kts | 256° |
| 2026-04-25 07:21 | 39.76728 | 2.23652 | 23235 ft | 386 kts | 256° |
| 2026-04-25 07:21 | 39.76089 | 2.20252 | 23796 ft | 389 kts | 256° |
| 2026-04-25 07:21 | 39.75453 | 2.16869 | 24243 ft | 392 kts | 256° |
| 2026-04-25 07:21 | 39.74796 | 2.13380 | 24768 ft | 394 kts | 256° |
| 2026-04-25 07:22 | 39.74143 | 2.09919 | 25228 ft | 397 kts | 256° |
| 2026-04-25 07:22 | 39.73480 | 2.06415 | 25698 ft | 399 kts | 256° |
| 2026-04-25 07:22 | 39.72814 | 2.02900 | 26157 ft | 402 kts | 256° |
| 2026-04-25 07:22 | 39.72143 | 1.99363 | 26612 ft | 404 kts | 256° |
| 2026-04-25 07:23 | 39.71467 | 1.95807 | 27054 ft | 407 kts | 256° |
| 2026-04-25 07:23 | 39.70787 | 1.92238 | 27512 ft | 409 kts | 256° |
| 2026-04-25 07:23 | 39.70100 | 1.88634 | 27941 ft | 412 kts | 256° |
| 2026-04-25 07:23 | 39.69416 | 1.85058 | 28357 ft | 414 kts | 256° |
| 2026-04-25 07:24 | 39.68719 | 1.81416 | 28771 ft | 417 kts | 256° |
| 2026-04-25 07:24 | 39.68017 | 1.77754 | 29194 ft | 419 kts | 256° |
| 2026-04-25 07:24 | 39.67308 | 1.74069 | 29621 ft | 421 kts | 256° |
| 2026-04-25 07:24 | 39.66597 | 1.70374 | 30008 ft | 424 kts | 256° |
| 2026-04-25 07:25 | 39.65879 | 1.66653 | 30373 ft | 426 kts | 256° |
| 2026-04-25 07:25 | 39.65158 | 1.62920 | 30725 ft | 428 kts | 256° |
| 2026-04-25 07:25 | 39.64431 | 1.59171 | 31057 ft | 430 kts | 256° |
| 2026-04-25 07:25 | 39.63701 | 1.55403 | 31379 ft | 432 kts | 256° |
| 2026-04-25 07:26 | 39.62963 | 1.51611 | 31693 ft | 434 kts | 256° |
| 2026-04-25 07:26 | 39.62224 | 1.47811 | 32029 ft | 436 kts | 256° |
| 2026-04-25 07:26 | 39.61479 | 1.43990 | 32355 ft | 438 kts | 256° |
| 2026-04-25 07:26 | 39.60734 | 1.40172 | 32759 ft | 437 kts | 255° |
| 2026-04-25 07:27 | 39.60197 | 1.36351 | 33197 ft | 435 kts | 266° |
| 2026-04-25 07:27 | 39.60015 | 1.32444 | 33667 ft | 433 kts | 265° |
| 2026-04-25 07:27 | 39.59789 | 1.28494 | 34071 ft | 433 kts | 265° |
| 2026-04-25 07:27 | 39.59572 | 1.24655 | 34419 ft | 432 kts | 265° |
| 2026-04-25 07:28 | 39.59353 | 1.20784 | 34775 ft | 431 kts | 265° |
| 2026-04-25 07:28 | 39.59133 | 1.16902 | 35080 ft | 432 kts | 265° |
| 2026-04-25 07:28 | 39.58691 | 1.09162 | 35125 ft | 429 kts | 265° |
| 2026-04-25 07:29 | 39.58244 | 1.01428 | 35122 ft | 430 kts | 265° |
| 2026-04-25 07:29 | 39.57792 | 0.93698 | 35127 ft | 430 kts | 265° |
| 2026-04-25 07:30 | 39.57336 | 0.85985 | 35122 ft | 430 kts | 265° |
| 2026-04-25 07:30 | 39.56874 | 0.78264 | 35123 ft | 430 kts | 265° |
| 2026-04-25 07:31 | 39.56406 | 0.70539 | 35127 ft | 429 kts | 265° |
| 2026-04-25 07:31 | 39.55938 | 0.62866 | 35127 ft | 429 kts | 264° |
| 2026-04-25 07:32 | 39.55461 | 0.55154 | 35125 ft | 429 kts | 264° |
| 2026-04-25 07:32 | 39.54980 | 0.47444 | 35123 ft | 429 kts | 264° |
| 2026-04-25 07:33 | 39.54494 | 0.39743 | 35128 ft | 429 kts | 264° |
| 2026-04-25 07:33 | 39.54004 | 0.32047 | 35127 ft | 429 kts | 264° |
| 2026-04-25 07:34 | 39.53507 | 0.24352 | 35129 ft | 429 kts | 264° |
| 2026-04-25 07:34 | 39.53004 | 0.16637 | 35130 ft | 429 kts | 264° |
| 2026-04-25 07:35 | 39.52497 | 0.08942 | 35132 ft | 429 kts | 264° |
| 2026-04-25 07:35 | 39.51987 | 0.01276 | 35130 ft | 429 kts | 264° |
| 2026-04-25 07:36 | 39.51472 | -0.06388 | 35132 ft | 429 kts | 264° |
| 2026-04-25 07:36 | 39.50950 | -0.14074 | 35131 ft | 429 kts | 264° |
| 2026-04-25 07:37 | 39.50507 | -0.20540 | 35130 ft | 429 kts | 264° |
| 2026-04-25 07:37 | 39.49887 | -0.29501 | 35132 ft | 429 kts | 263° |
| 2026-04-25 07:38 | 39.49437 | -0.35946 | 35132 ft | 429 kts | 263° |
| 2026-04-25 07:38 | 39.48895 | -0.43595 | 35128 ft | 429 kts | 262° |
| 2026-04-25 07:39 | 39.48210 | -0.47319 | 35123 ft | 424 kts | 245° |
| 2026-04-25 07:39 | 39.46789 | -0.50626 | 35137 ft | 423 kts | 235° |
| 2026-04-25 07:39 | 39.43438 | -0.56891 | 35133 ft | 424 kts | 232° |
| 2026-04-25 07:40 | 39.39967 | -0.62957 | 35133 ft | 424 kts | 231° |
| 2026-04-25 07:40 | 39.36404 | -0.69049 | 35131 ft | 424 kts | 231° |
| 2026-04-25 07:41 | 39.32837 | -0.75113 | 35133 ft | 424 kts | 231° |
| 2026-04-25 07:41 | 39.29278 | -0.81148 | 35143 ft | 425 kts | 231° |
| 2026-04-25 07:42 | 39.25698 | -0.87209 | 35140 ft | 425 kts | 231° |
| 2026-04-25 07:42 | 39.22102 | -0.93284 | 35145 ft | 425 kts | 231° |
| 2026-04-25 07:43 | 39.18511 | -0.99339 | 35138 ft | 426 kts | 230° |
| 2026-04-25 07:43 | 39.14903 | -1.05411 | 35143 ft | 426 kts | 230° |
| 2026-04-25 07:44 | 39.11285 | -1.11490 | 35150 ft | 427 kts | 230° |
| 2026-04-25 07:44 | 39.07659 | -1.17568 | 35143 ft | 427 kts | 230° |
| 2026-04-25 07:45 | 39.04058 | -1.23595 | 35148 ft | 427 kts | 230° |
| 2026-04-25 07:45 | 39.00430 | -1.29655 | 35150 ft | 427 kts | 230° |
| 2026-04-25 07:46 | 38.96805 | -1.35698 | 35149 ft | 427 kts | 230° |
| 2026-04-25 07:46 | 38.93170 | -1.41747 | 35144 ft | 428 kts | 230° |
| 2026-04-25 07:47 | 38.89529 | -1.47796 | 35146 ft | 428 kts | 230° |
| 2026-04-25 07:47 | 38.85885 | -1.53836 | 35150 ft | 428 kts | 230° |
| 2026-04-25 07:48 | 38.82241 | -1.59867 | 35160 ft | 427 kts | 229° |
| 2026-04-25 07:48 | 38.78610 | -1.65863 | 35154 ft | 427 kts | 229° |
| 2026-04-25 07:49 | 38.74958 | -1.71885 | 35153 ft | 427 kts | 229° |
| 2026-04-25 07:49 | 38.71308 | -1.77889 | 35155 ft | 427 kts | 229° |
| 2026-04-25 07:50 | 38.67667 | -1.83865 | 35152 ft | 427 kts | 229° |
| 2026-04-25 07:50 | 38.64004 | -1.89866 | 35153 ft | 427 kts | 229° |
| 2026-04-25 07:51 | 38.60352 | -1.95840 | 35150 ft | 427 kts | 229° |
| 2026-04-25 07:51 | 38.56687 | -2.01824 | 35149 ft | 427 kts | 229° |
| 2026-04-25 07:52 | 38.53016 | -2.07806 | 35143 ft | 427 kts | 229° |
| 2026-04-25 07:52 | 38.49361 | -2.13753 | 35146 ft | 428 kts | 229° |
| 2026-04-25 07:53 | 38.45679 | -2.19734 | 35145 ft | 428 kts | 229° |
| 2026-04-25 07:53 | 38.41996 | -2.25705 | 35142 ft | 429 kts | 229° |
| 2026-04-25 07:54 | 38.38294 | -2.31698 | 35139 ft | 429 kts | 229° |
| 2026-04-25 07:54 | 38.36698 | -2.34914 | 35129 ft | 433 kts | 244° |
| 2026-04-25 07:54 | 38.35803 | -2.38546 | 35145 ft | 438 kts | 253° |
| 2026-04-25 07:55 | 38.34418 | -2.46113 | 35137 ft | 440 kts | 255° |
| 2026-04-25 07:55 | 38.33155 | -2.53743 | 35132 ft | 440 kts | 255° |
| 2026-04-25 07:56 | 38.31929 | -2.61371 | 35119 ft | 440 kts | 255° |
| 2026-04-25 07:56 | 38.30690 | -2.69078 | 35114 ft | 440 kts | 255° |
| 2026-04-25 07:57 | 38.29468 | -2.76656 | 35111 ft | 440 kts | 255° |
| 2026-04-25 07:57 | 38.28224 | -2.84337 | 35111 ft | 440 kts | 255° |
| 2026-04-25 07:58 | 38.26990 | -2.91920 | 35108 ft | 440 kts | 255° |
| 2026-04-25 07:58 | 38.25743 | -2.99547 | 35104 ft | 441 kts | 255° |
| 2026-04-25 07:59 | 38.24487 | -3.07201 | 35099 ft | 441 kts | 255° |
| 2026-04-25 07:59 | 38.23227 | -3.14846 | 35100 ft | 441 kts | 255° |
| 2026-04-25 08:00 | 38.21968 | -3.22458 | 35102 ft | 442 kts | 255° |
| 2026-04-25 08:00 | 38.20694 | -3.30118 | 35098 ft | 443 kts | 255° |
| 2026-04-25 08:01 | 38.19417 | -3.37766 | 35093 ft | 443 kts | 255° |
| 2026-04-25 08:01 | 38.18129 | -3.45452 | 35100 ft | 444 kts | 255° |
| 2026-04-25 08:02 | 38.16837 | -3.53130 | 35108 ft | 444 kts | 255° |
| 2026-04-25 08:02 | 38.15570 | -3.60635 | 35099 ft | 420 kts | 255° |
| 2026-04-25 08:03 | 38.14853 | -3.64171 | 34908 ft | 409 kts | 251° |
| 2026-04-25 08:03 | 38.14100 | -3.67658 | 34554 ft | 410 kts | 252° |
| 2026-04-25 08:03 | 38.13354 | -3.71161 | 34048 ft | 414 kts | 251° |
| 2026-04-25 08:03 | 38.12609 | -3.74688 | 33496 ft | 414 kts | 251° |
| 2026-04-25 08:04 | 38.11865 | -3.78208 | 33018 ft | 412 kts | 252° |
| 2026-04-25 08:04 | 38.11130 | -3.81679 | 32563 ft | 408 kts | 252° |
| 2026-04-25 08:04 | 38.10392 | -3.85163 | 32098 ft | 405 kts | 252° |
| 2026-04-25 08:04 | 38.09665 | -3.88589 | 31633 ft | 403 kts | 252° |
| 2026-04-25 08:05 | 38.08931 | -3.92038 | 31181 ft | 401 kts | 252° |
| 2026-04-25 08:05 | 38.08215 | -3.95402 | 30715 ft | 398 kts | 252° |
| 2026-04-25 08:05 | 38.07494 | -3.98781 | 30255 ft | 397 kts | 252° |
| 2026-04-25 08:05 | 38.06770 | -4.02170 | 29560 ft | 400 kts | 252° |
| 2026-04-25 08:06 | 38.06036 | -4.05599 | 29021 ft | 398 kts | 252° |
| 2026-04-25 08:06 | 38.05317 | -4.08958 | 28612 ft | 393 kts | 252° |
| 2026-04-25 08:06 | 38.04598 | -4.12303 | 28189 ft | 389 kts | 252° |
| 2026-04-25 08:06 | 38.03897 | -4.15565 | 27761 ft | 386 kts | 252° |
| 2026-04-25 08:07 | 38.03194 | -4.18834 | 27334 ft | 383 kts | 252° |
| 2026-04-25 08:07 | 38.02495 | -4.22079 | 26904 ft | 380 kts | 252° |
| 2026-04-25 08:07 | 38.01801 | -4.25292 | 26481 ft | 377 kts | 252° |
| 2026-04-25 08:07 | 38.01109 | -4.28495 | 26061 ft | 375 kts | 253° |
| 2026-04-25 08:08 | 38.00416 | -4.31693 | 25638 ft | 372 kts | 253° |
| 2026-04-25 08:08 | 37.99735 | -4.34837 | 25229 ft | 370 kts | 253° |
| 2026-04-25 08:08 | 37.99055 | -4.37967 | 24804 ft | 369 kts | 253° |
| 2026-04-25 08:08 | 37.98376 | -4.41094 | 24390 ft | 368 kts | 253° |
| 2026-04-25 08:09 | 37.97699 | -4.44203 | 23967 ft | 367 kts | 253° |
| 2026-04-25 08:09 | 37.97021 | -4.47312 | 23530 ft | 366 kts | 253° |
| 2026-04-25 08:09 | 37.96342 | -4.50423 | 23045 ft | 365 kts | 253° |
| 2026-04-25 08:09 | 37.95669 | -4.53500 | 22609 ft | 362 kts | 253° |
| 2026-04-25 08:10 | 37.94998 | -4.56565 | 22193 ft | 358 kts | 253° |
| 2026-04-25 08:10 | 37.94334 | -4.59592 | 21774 ft | 355 kts | 254° |
| 2026-04-25 08:10 | 37.93675 | -4.62594 | 21373 ft | 353 kts | 254° |
| 2026-04-25 08:10 | 37.93015 | -4.65599 | 20919 ft | 352 kts | 254° |
| 2026-04-25 08:11 | 37.92359 | -4.68573 | 20500 ft | 350 kts | 254° |
| 2026-04-25 08:11 | 37.91706 | -4.71538 | 20113 ft | 347 kts | 254° |
| 2026-04-25 08:11 | 37.91060 | -4.74466 | 19730 ft | 344 kts | 254° |
| 2026-04-25 08:11 | 37.90415 | -4.77385 | 19334 ft | 342 kts | 254° |
| 2026-04-25 08:12 | 37.89775 | -4.80277 | 18942 ft | 340 kts | 254° |
| 2026-04-25 08:12 | 37.89146 | -4.83116 | 18561 ft | 338 kts | 254° |
| 2026-04-25 08:12 | 37.88504 | -4.86012 | 18140 ft | 337 kts | 254° |
| 2026-04-25 08:12 | 37.87879 | -4.88826 | 17719 ft | 335 kts | 254° |
| 2026-04-25 08:13 | 37.87252 | -4.91647 | 17313 ft | 332 kts | 255° |
| 2026-04-25 08:13 | 37.86626 | -4.94459 | 16912 ft | 329 kts | 255° |
| 2026-04-25 08:13 | 37.86010 | -4.97220 | 16531 ft | 326 kts | 255° |
| 2026-04-25 08:14 | 37.84781 | -5.02723 | 15767 ft | 321 kts | 255° |
| 2026-04-25 08:14 | 37.84174 | -5.05440 | 15392 ft | 319 kts | 255° |
| 2026-04-25 08:14 | 37.83570 | -5.08133 | 15005 ft | 317 kts | 255° |
| 2026-04-25 08:14 | 37.82969 | -5.10814 | 14637 ft | 316 kts | 255° |
| 2026-04-25 08:15 | 37.82371 | -5.13476 | 14251 ft | 314 kts | 255° |
| 2026-04-25 08:15 | 37.81783 | -5.16091 | 13871 ft | 313 kts | 255° |
| 2026-04-25 08:15 | 37.81188 | -5.18735 | 13444 ft | 312 kts | 255° |
| 2026-04-25 08:15 | 37.80594 | -5.21376 | 13036 ft | 310 kts | 255° |
| 2026-04-25 08:16 | 37.80005 | -5.23991 | 12623 ft | 308 kts | 255° |
| 2026-04-25 08:16 | 37.79414 | -5.26610 | 12142 ft | 310 kts | 255° |
| 2026-04-25 08:16 | 37.78822 | -5.29230 | 11676 ft | 311 kts | 255° |
| 2026-04-25 08:16 | 37.78226 | -5.31866 | 11214 ft | 312 kts | 255° |
| 2026-04-25 08:17 | 37.77630 | -5.34501 | 10761 ft | 313 kts | 255° |
| 2026-04-25 08:17 | 37.77029 | -5.37124 | 10314 ft | 313 kts | 253° |
| 2026-04-25 08:17 | 37.76001 | -5.39502 | 9831 ft | 306 kts | 228° |
| 2026-04-25 08:17 | 37.74457 | -5.41279 | 9356 ft | 297 kts | 221° |
| 2026-04-25 08:18 | 37.72927 | -5.42992 | 8911 ft | 289 kts | 221° |
| 2026-04-25 08:18 | 37.71447 | -5.44655 | 8511 ft | 282 kts | 221° |
| 2026-04-25 08:18 | 37.69998 | -5.46281 | 8081 ft | 276 kts | 221° |
| 2026-04-25 08:18 | 37.68574 | -5.47879 | 7670 ft | 273 kts | 221° |
| 2026-04-25 08:19 | 37.67147 | -5.49479 | 7288 ft | 277 kts | 221° |
| 2026-04-25 08:19 | 37.65671 | -5.51079 | 6919 ft | 283 kts | 214° |
| 2026-04-25 08:19 | 37.63857 | -5.52059 | 6474 ft | 288 kts | 193° |
| 2026-04-25 08:19 | 37.61913 | -5.52757 | 6084 ft | 288 kts | 195° |
| 2026-04-25 08:20 | 37.60010 | -5.53462 | 5727 ft | 283 kts | 195° |
| 2026-04-25 08:20 | 37.58173 | -5.54143 | 5419 ft | 271 kts | 195° |
| 2026-04-25 08:20 | 37.56399 | -5.54804 | 5093 ft | 260 kts | 195° |
| 2026-04-25 08:20 | 37.54687 | -5.55442 | 4776 ft | 252 kts | 195° |
| 2026-04-25 08:21 | 37.53040 | -5.56056 | 4442 ft | 244 kts | 195° |
| 2026-04-25 08:21 | 37.51426 | -5.56656 | 4098 ft | 237 kts | 195° |
| 2026-04-25 08:21 | 37.49875 | -5.57232 | 3828 ft | 231 kts | 195° |
| 2026-04-25 08:21 | 37.48326 | -5.57809 | 3499 ft | 232 kts | 195° |
| 2026-04-25 08:22 | 37.46776 | -5.58385 | 3182 ft | 232 kts | 195° |
| 2026-04-25 08:22 | 37.45236 | -5.58958 | 2891 ft | 231 kts | 195° |
| 2026-04-25 08:22 | 37.43703 | -5.59531 | 2623 ft | 229 kts | 197° |
| 2026-04-25 08:22 | 37.42380 | -5.60542 | 2287 ft | 226 kts | 232° |
| 2026-04-25 08:23 | 37.41850 | -5.62357 | 1989 ft | 222 kts | 268° |
| 2026-04-25 08:23 | 37.41850 | -5.64279 | 1746 ft | 218 kts | 270° |
| 2026-04-25 08:23 | 37.41849 | -5.65540 | 1575 ft | 217 kts | 270° |
| 2026-04-25 08:23 | 37.41845 | -5.67997 | 1478 ft | 201 kts | 270° |
| 2026-04-25 08:24 | 37.41843 | -5.69688 | 1542 ft | 189 kts | 270° |
| 2026-04-25 08:24 | 37.41841 | -5.70769 | 1514 ft | 180 kts | 270° |
| 2026-04-25 08:24 | 37.41839 | -5.72326 | 1487 ft | 176 kts | 270° |
| 2026-04-25 08:24 | 37.41837 | -5.73859 | 1499 ft | 176 kts | 270° |
| 2026-04-25 08:25 | 37.41833 | -5.75398 | 1504 ft | 176 kts | 270° |
| 2026-04-25 08:25 | 37.41829 | -5.76940 | 1505 ft | 176 kts | 270° |
| 2026-04-25 08:25 | 37.41834 | -5.78474 | 1480 ft | 176 kts | 270° |
| 2026-04-25 08:25 | 37.41831 | -5.79981 | 1303 ft | 165 kts | 269° |
| 2026-04-25 08:26 | 37.41824 | -5.81341 | 1103 ft | 146 kts | 270° |
| 2026-04-25 08:26 | 37.41818 | -5.82572 | 912 ft | 139 kts | 270° |
| 2026-04-25 08:26 | 37.41815 | -5.83783 | 729 ft | 138 kts | 270° |
| 2026-04-25 08:26 | 37.41811 | -5.84989 | 553 ft | 138 kts | 270° |
| 2026-04-25 08:27 | 37.41806 | -5.86190 | 365 ft | 137 kts | 270° |
| 2026-04-25 08:27 | 37.41802 | -5.87386 | 183 ft | 136 kts | 270° |
| 2026-04-25 08:27 | 37.41799 | -5.88496 | 109 ft | 118 kts | 270° |
| 2026-04-25 08:27 | 37.41797 | -5.88971 | 105 ft | 28 kts | 269° |
| 2026-04-25 08:28 | 37.41848 | -5.89194 | 102 ft | 24 kts | 304° |
| 2026-04-25 08:28 | 37.41958 | -5.89332 | 101 ft | 21 kts | 321° |
| 2026-04-25 08:28 | 37.42050 | -5.89442 | 101 ft | 19 kts | 314° |
| 2026-04-25 08:28 | 37.42127 | -5.89543 | 100 ft | 16 kts | 314° |
| 2026-04-25 08:29 | 37.42213 | -5.89660 | 100 ft | 20 kts | 307° |
| 2026-04-25 08:29 | 37.42233 | -5.89770 | 98 ft | 10 kts | 286° |
| 2026-04-25 08:29 | 37.42244 | -5.89858 | 99 ft | 9 kts | 247° |
| 2026-04-25 08:29 | 37.42224 | -5.89864 | 96 ft | 3 kts | 149° |
| 2026-04-25 08:30 | 37.42233 | -5.89807 | 96 ft | 10 kts | 51° |
| 2026-04-25 08:30 | 37.42299 | -5.89736 | 98 ft | 10 kts | 37° |
| 2026-04-25 08:30 | 37.42363 | -5.89690 | 96 ft | 8 kts | 357° |
| 2026-04-25 08:30 | 37.42408 | -5.89676 | 97 ft | 6 kts | 36° |
| 2026-04-25 08:31 | 37.42427 | -5.89654 | 96 ft | 0 kts | 43° |